Airfield :
LOGIN :

Register | Disclaimer

   EN    FR    IT 

 










Legend :    VFR   Marginal VFR   IFR   Intensive IFR   Very Intensive IFR
Visi :
Ceiling :
>= 8 km
>= 3000ft
5 to 8 km
1000 to 3000 ft
1500m to 5 km
500 to 1000 ft
800 to 1500m
200 to 500 ft
< 800m
< 200 ft
Symbols :   Thunderstorms  Fog  Heavy snow  Heavy precipitations  Wind > 20 kt
SIGMETs :     Misc.  Thunderstorms  Icing  Turbulence  Mountain Waves  Volcanic Ashes






- Airport Elevation : 287 ft


LFRL - Lanveoc Poulmic

CURRENT METAR :
  • 230530Z AUTO 22009KT 4600 -RA BR BKN006/// BKN017/// BKN028/// ///TCU 13/12 Q1010

EXPIRED METARs :
  • 230500Z AUTO 20010KT 9999 BKN010/// OVC015/// ///CB 14/13 Q1009
  • 230430Z AUTO 20012KT 9999 BKN010/// BKN018/// OVC029/// ///TCU 14/13 Q1009
  • 230400Z AUTO 20010KT 9999 BKN009/// BKN013/// BKN032/// ///TCU 13/13 Q1009
  • 230330Z AUTO 20008KT 9999 BKN010 BKN015 BKN029 13/13 Q1010
  • 230300Z AUTO 19008KT 9999 FEW007 BKN017 OVC024 13/13 Q1010

TAF TAF LFRL
Valid from the 22 at 12:00 until the 23 at 12:00 UTC


221100Z 2212/2312 18008KT 9999 BKN012
PROB30
TEMPO 2212/2218 SHRA SCT015TCU
BECMG 2212/2214 SCT020
BECMG 2217/2220 OVC002
TEMPO 2217/2309 3000 BR
BECMG 2310/2312 22010KT OVC008



MET'MAP, your aeronautical weather chart ! - Copyright ORBIFLY December 2007 - Disclaimer

ORBIFLY MET'MAP TEAM :

Programming & Development : Alexandra Zaïnal
Concept & original design : Baudouin d'Aumeries
Assistance for programming : Marc-Olivier Méhu
Technical & hardware support : Manuel Goepfert

Contact : metmap@orbifly.com




SOURCES & CREDITS :

   NOAA